createdAt,value
2019-05-02T00:00:13.299Z,101164.68
2019-05-02T00:03:04.468Z,101168.56
2019-05-02T00:05:48.569Z,101168.56
2019-05-02T00:08:36.915Z,101163.03
2019-05-02T00:11:25.077Z,101163.03
2019-05-02T00:14:12.714Z,101155.98
2019-05-02T00:17:00.526Z,101164.05
2019-05-02T00:19:49.827Z,101157.09
2019-05-02T00:22:36.454Z,101152.76
2019-05-02T00:25:23.990Z,101155.40
2019-05-02T00:28:13.857Z,101153.23
2019-05-02T00:30:59.807Z,101152.76
2019-05-02T00:33:47.278Z,101152.61
2019-05-02T00:36:35.230Z,101147.30
2019-05-02T00:39:23.091Z,101154.95
2019-05-02T00:42:12.897Z,101154.95
2019-05-02T00:44:58.494Z,101153.96
2019-05-02T00:47:53.378Z,101140.84
2019-05-02T00:50:45.437Z,101140.84
2019-05-02T00:53:29.016Z,101139.61
2019-05-02T00:56:16.704Z,101139.50
2019-05-02T00:59:07.489Z,101137.62
2019-05-02T01:02:05.317Z,101131.87
2019-05-02T01:04:49.011Z,101131.87
2019-05-02T01:07:37.166Z,101126.54
2019-05-02T01:10:24.702Z,101125.59
2019-05-02T01:13:14.734Z,101120.70
2019-05-02T01:16:00.153Z,101122.95
2019-05-02T01:18:47.726Z,101123.88
2019-05-02T01:21:38.873Z,101114.23
2019-05-02T01:24:23.631Z,101114.23
2019-05-02T01:27:30.594Z,101112.31
2019-05-02T01:30:23.082Z,101112.31
2019-05-02T01:33:29.760Z,101111.28
2019-05-02T01:36:21.388Z,101113.06
2019-05-02T01:39:11.662Z,101112.45
2019-05-02T01:41:59.885Z,101104.91
2019-05-02T01:44:47.116Z,101114.16
2019-05-02T01:47:35.885Z,101107.55
2019-05-02T01:50:22.220Z,101097.13
2019-05-02T01:53:10.300Z,101099.84
2019-05-02T01:55:59.389Z,101089.86
2019-05-02T01:58:45.612Z,101089.86
2019-05-02T02:01:33.768Z,101092.88
2019-05-02T02:04:22.294Z,101094.36
2019-05-02T02:07:10.026Z,101092.75
2019-05-02T02:09:57.804Z,101088.84
2019-05-02T02:13:02.779Z,101089.27
2019-05-02T02:15:33.380Z,101085.74
2019-05-02T02:18:22.084Z,101080.11
2019-05-02T02:21:27.688Z,101080.11
2019-05-02T02:24:34.134Z,101081.44
2019-05-02T02:27:24.624Z,101079.31
2019-05-02T02:30:09.183Z,101070.94
2019-05-02T02:33:00.678Z,101082.19
2019-05-02T02:35:50.487Z,101079.95
2019-05-02T02:38:33.529Z,101079.70
2019-05-02T02:41:19.764Z,101074.58
2019-05-02T02:44:39.957Z,101073.52
2019-05-02T02:47:23.768Z,101079.30
2019-05-02T02:50:11.533Z,101071.39
2019-05-02T02:52:59.727Z,101074.52
2019-05-02T02:55:47.713Z,101071.44
2019-05-02T02:58:44.093Z,101062.36
2019-05-02T03:01:28.822Z,101061.34
2019-05-02T03:04:12.211Z,101067.91
2019-05-02T03:06:58.032Z,101054.75
2019-05-02T03:09:45.515Z,101055.62
2019-05-02T03:12:41.442Z,101055.14
2019-05-02T03:15:28.091Z,101052.94
2019-05-02T03:18:13.794Z,101054.42
2019-05-02T03:21:01.539Z,101051.00
2019-05-02T03:23:49.196Z,101047.75
2019-05-02T03:26:37.383Z,101042.36
2019-05-02T03:29:25.583Z,101042.05
2019-05-02T03:32:26.057Z,101037.35
2019-05-02T03:35:01.804Z,101035.63
2019-05-02T03:37:51.453Z,101037.84
2019-05-02T03:40:38.884Z,101026.48
2019-05-02T03:43:25.898Z,101026.48
2019-05-02T03:46:13.420Z,101032.00
2019-05-02T03:49:07.099Z,101044.73
2019-05-02T03:51:47.444Z,101031.89
2019-05-02T03:54:34.954Z,101033.21
2019-05-02T03:57:32.387Z,101036.98
2019-05-02T04:00:13.687Z,101036.25
2019-05-02T04:03:00.263Z,101029.73
2019-05-02T04:05:45.850Z,101029.73
2019-05-02T04:08:33.924Z,101030.28
2019-05-02T04:11:24.936Z,101020.97
2019-05-02T04:14:17.437Z,101023.33
2019-05-02T04:17:00.224Z,101033.95
2019-05-02T04:19:48.062Z,101028.17
2019-05-02T04:22:36.281Z,101029.34
2019-05-02T04:25:27.881Z,101028.05
2019-05-02T04:28:14.364Z,101021.53
2019-05-02T04:30:59.609Z,101023.20
2019-05-02T04:33:49.964Z,101019.16
2019-05-02T04:36:37.984Z,101023.52
2019-05-02T04:39:28.460Z,101020.41
2019-05-02T04:42:19.547Z,101015.69
2019-05-02T04:45:21.436Z,101024.38
2019-05-02T04:47:57.511Z,101018.08
2019-05-02T04:50:37.909Z,101013.75
2019-05-02T04:53:33.393Z,101022.80
2019-05-02T04:56:12.350Z,101025.87
2019-05-02T04:59:01.995Z,101022.63
2019-05-02T05:01:56.611Z,101024.03
2019-05-02T05:04:44.793Z,101024.03
2019-05-02T05:07:31.160Z,101018.62
2019-05-02T05:10:14.190Z,101013.83
2019-05-02T05:13:01.996Z,101010.27
2019-05-02T05:15:51.901Z,101013.17
2019-05-02T05:18:37.930Z,101016.96
2019-05-02T05:21:26.222Z,101012.88
2019-05-02T05:24:32.934Z,101012.88
2019-05-02T05:27:22.768Z,101017.22
2019-05-02T05:30:11.267Z,101014.58
2019-05-02T05:32:55.078Z,101017.82
2019-05-02T05:35:48.731Z,101009.05
2019-05-02T05:38:33.359Z,101024.98
2019-05-02T05:41:22.893Z,101018.28
2019-05-02T05:44:07.822Z,101014.23
2019-05-02T05:46:54.538Z,101022.06
2019-05-02T05:49:42.145Z,101013.00
2019-05-02T05:52:33.065Z,101014.72
2019-05-02T05:55:24.049Z,101004.59
2019-05-02T05:58:15.091Z,101007.45
2019-05-02T06:00:55.602Z,101005.64
2019-05-02T06:03:44.846Z,101005.64
2019-05-02T06:06:30.106Z,100999.45
2019-05-02T06:09:17.692Z,101004.12
2019-05-02T06:12:05.222Z,101004.89
2019-05-02T06:14:56.261Z,100998.28
2019-05-02T06:17:40.920Z,101002.16
2019-05-02T06:20:30.590Z,101001.27
2019-05-02T06:23:16.296Z,100997.30
2019-05-02T06:26:07.974Z,100992.79
2019-05-02T06:28:52.467Z,100992.79
2019-05-02T06:31:43.162Z,100993.95
2019-05-02T06:34:28.132Z,100992.81
2019-05-02T06:37:15.747Z,100991.25
2019-05-02T06:40:08.037Z,100991.25
2019-05-02T06:42:51.735Z,100985.80
2019-05-02T06:45:39.632Z,100980.19
2019-05-02T06:48:27.367Z,100985.97
2019-05-02T06:51:19.631Z,100979.89
2019-05-02T06:54:03.342Z,100978.33
2019-05-02T06:56:50.630Z,100969.34
2019-05-02T06:59:38.245Z,100971.20
2019-05-02T07:02:28.254Z,100968.09
2019-05-02T07:05:13.767Z,100971.56
2019-05-02T07:08:01.480Z,100971.56
2019-05-02T07:10:49.643Z,100966.44
2019-05-02T07:13:42.064Z,100966.44
2019-05-02T07:16:38.457Z,100956.47
2019-05-02T07:19:30.059Z,100977.48
2019-05-02T07:22:17.419Z,100977.48
2019-05-02T07:25:06.833Z,100957.96
2019-05-02T07:27:53.698Z,100957.96
2019-05-02T07:30:41.183Z,100969.24
2019-05-02T07:33:32.385Z,100969.24
2019-05-02T07:36:16.715Z,100963.95
2019-05-02T07:39:07.103Z,100961.84
2019-05-02T07:41:54.830Z,100961.84
2019-05-02T07:44:42.718Z,100979.58
2019-05-02T07:47:34.726Z,100957.41
2019-05-02T07:50:18.082Z,100957.47
2019-05-02T07:53:09.601Z,100957.47
2019-05-02T07:55:53.881Z,100962.50
2019-05-02T07:58:46.818Z,100958.69
2019-05-02T08:01:29.677Z,100966.88
2019-05-02T08:04:17.354Z,100960.08
2019-05-02T08:07:05.038Z,100960.08
2019-05-02T08:09:53.037Z,100962.97
2019-05-02T08:12:41.326Z,100966.63
2019-05-02T08:15:28.912Z,100965.02
2019-05-02T08:18:16.610Z,100952.94
2019-05-02T08:21:04.884Z,100949.18
2019-05-02T08:23:52.678Z,100951.97
2019-05-02T08:26:59.515Z,100958.19
2019-05-02T08:29:45.404Z,100979.96
2019-05-02T08:32:32.952Z,100972.17
2019-05-02T08:35:21.496Z,100962.66
2019-05-02T08:38:12.579Z,100969.02
2019-05-02T08:40:57.135Z,100967.59
2019-05-02T08:43:46.245Z,100967.59
2019-05-02T08:46:33.470Z,100963.38
2019-05-02T08:49:21.369Z,100969.88
2019-05-02T08:52:08.924Z,100969.88
2019-05-02T08:54:56.822Z,100967.36
2019-05-02T08:57:44.478Z,100957.02
2019-05-02T09:00:36.907Z,100965.20
2019-05-02T09:03:19.869Z,100973.61
2019-05-02T09:06:07.778Z,100973.61
2019-05-02T09:08:55.815Z,100959.66
2019-05-02T09:11:56.048Z,100959.66
2019-05-02T09:14:32.274Z,100965.66
2019-05-02T09:17:33.172Z,100972.25
2019-05-02T09:20:15.490Z,100962.28
2019-05-02T09:22:56.852Z,100971.28
2019-05-02T09:25:44.676Z,100971.28
2019-05-02T09:28:32.602Z,100939.89
2019-05-02T09:31:22.628Z,100943.02
2019-05-02T09:34:08.494Z,100969.77
2019-05-02T09:36:56.755Z,100962.76
2019-05-02T09:39:44.836Z,100951.41
2019-05-02T09:42:32.855Z,100955.22
2019-05-02T09:45:32.385Z,100963.78
2019-05-02T09:48:17.204Z,100955.14
2019-05-02T09:51:11.600Z,100951.86
2019-05-02T09:53:52.469Z,100959.28
2019-05-02T09:56:40.064Z,100957.07
2019-05-02T09:59:33.132Z,100951.35
2019-05-02T10:02:21.892Z,100953.53
2019-05-02T10:05:07.480Z,100956.53
2019-05-02T10:07:57.393Z,100954.81
2019-05-02T10:10:45.895Z,100960.88
2019-05-02T10:13:35.324Z,100962.77
2019-05-02T10:16:27.173Z,100956.09
2019-05-02T10:19:13.549Z,100949.73
2019-05-02T10:21:58.867Z,100947.33
2019-05-02T10:24:46.563Z,100940.02
2019-05-02T10:27:38.530Z,100939.50
2019-05-02T10:30:22.606Z,100936.21
2019-05-02T10:33:13.027Z,100934.92
2019-05-02T10:36:02.718Z,100942.86
2019-05-02T10:38:54.689Z,100937.62
2019-05-02T10:41:39.773Z,100934.36
2019-05-02T10:44:27.158Z,100924.87
2019-05-02T10:47:14.268Z,100918.77
2019-05-02T10:50:07.025Z,100920.62
2019-05-02T10:52:55.014Z,100912.66
2019-05-02T10:55:43.147Z,100904.44
2019-05-02T10:58:35.675Z,100898.95
2019-05-02T11:01:19.257Z,100886.54
2019-05-02T11:04:07.555Z,100891.56
2019-05-02T11:06:56.830Z,100886.88
2019-05-02T11:09:45.426Z,100887.55
2019-05-02T11:12:44.458Z,100890.51
2019-05-02T11:15:47.521Z,100885.42
2019-05-02T11:18:52.283Z,100882.38
2019-05-02T11:21:38.090Z,100889.88
2019-05-02T11:24:25.569Z,100882.41
2019-05-02T11:27:13.360Z,100870.13
2019-05-02T11:30:02.744Z,100874.53
2019-05-02T11:32:49.208Z,100865.06
2019-05-02T11:35:37.027Z,100857.55
2019-05-02T11:38:47.178Z,100853.40
2019-05-02T11:41:13.672Z,100857.09
2019-05-02T11:44:02.974Z,100855.38
2019-05-02T11:46:49.273Z,100845.67
2019-05-02T11:49:37.476Z,100846.92
2019-05-02T11:52:27.547Z,100841.27
2019-05-02T11:55:13.573Z,100835.89
2019-05-02T11:58:07.914Z,100830.02
2019-05-02T12:00:49.796Z,100825.66
2019-05-02T12:03:43.009Z,100805.58
2019-05-02T12:06:33.158Z,100804.25
2019-05-02T12:09:22.226Z,100804.62
2019-05-02T12:12:07.935Z,100805.07
2019-05-02T12:14:56.008Z,100798.83
2019-05-02T12:17:45.752Z,100791.91
2019-05-02T12:20:33.947Z,100798.12
2019-05-02T12:23:19.291Z,100805.16
2019-05-02T12:26:07.543Z,100800.16
2019-05-02T12:28:56.051Z,100801.69
2019-05-02T12:31:47.307Z,100792.51
2019-05-02T12:34:32.778Z,100785.83
2019-05-02T12:37:21.938Z,100797.94
2019-05-02T12:40:08.931Z,100786.02
2019-05-02T12:42:56.719Z,100787.61
2019-05-02T12:45:45.217Z,100781.18
2019-05-02T12:48:33.010Z,100788.92
2019-05-02T12:51:22.529Z,100785.41
2019-05-02T12:54:08.138Z,100779.97
2019-05-02T12:56:56.239Z,100781.00
2019-05-02T12:59:44.280Z,100779.31
2019-05-02T13:02:37.625Z,100777.32
2019-05-02T13:05:25.455Z,100768.40
2019-05-02T13:08:13.229Z,100771.14
2019-05-02T13:11:22.663Z,100763.41
2019-05-02T13:14:18.440Z,100767.25
2019-05-02T13:17:01.216Z,100764.58
2019-05-02T13:19:55.540Z,100751.55
2019-05-02T13:22:47.903Z,100756.58
2019-05-02T13:25:37.062Z,100743.17
2019-05-02T13:28:25.643Z,100740.88
2019-05-02T13:31:22.879Z,100743.20
2019-05-02T13:34:15.086Z,100737.98
2019-05-02T13:37:02.983Z,100731.91
2019-05-02T13:40:12.027Z,100728.47
2019-05-02T13:42:58.061Z,100716.05
2019-05-02T13:46:08.304Z,100719.53
2019-05-02T13:48:55.861Z,100714.46
2019-05-02T13:51:43.703Z,100715.23
2019-05-02T13:54:32.970Z,100713.47
2019-05-02T13:57:19.439Z,100707.86
2019-05-02T14:00:07.296Z,100704.64
2019-05-02T14:02:55.545Z,100698.80
2019-05-02T14:05:50.878Z,100704.11
2019-05-02T14:08:40.359Z,100697.92
2019-05-02T14:11:44.685Z,100695.59
2019-05-02T14:14:32.668Z,100702.23
2019-05-02T14:17:19.715Z,100708.37
2019-05-02T14:20:10.886Z,100703.33
2019-05-02T14:22:55.091Z,100710.53
2019-05-02T14:25:43.499Z,100705.61
2019-05-02T14:28:36.121Z,100713.58
2019-05-02T14:31:19.452Z,100717.23
2019-05-02T14:34:25.225Z,100719.02
2019-05-02T14:37:12.976Z,100722.18
2019-05-02T14:40:08.423Z,100722.50
2019-05-02T14:42:57.804Z,100711.17
2019-05-02T14:45:44.927Z,100718.11
2019-05-02T14:48:41.022Z,100717.09
2019-05-02T14:51:27.632Z,100723.48
2019-05-02T14:54:12.052Z,100712.57
2019-05-02T14:57:22.059Z,100708.71
2019-05-02T15:00:05.384Z,100717.94
2019-05-02T15:02:53.023Z,100715.12
2019-05-02T15:05:42.451Z,100703.38
2019-05-02T15:08:28.083Z,100709.28
2019-05-02T15:11:15.795Z,100703.87
2019-05-02T15:14:03.250Z,100700.30
2019-05-02T15:16:55.228Z,100699.19
2019-05-02T15:19:39.552Z,100703.05
2019-05-02T15:22:27.701Z,100702.72
2019-05-02T15:25:17.833Z,100699.98
2019-05-02T15:28:02.622Z,100690.67
2019-05-02T15:31:05.001Z,100687.14
2019-05-02T15:34:01.598Z,100689.95
2019-05-02T15:36:47.748Z,100691.61
2019-05-02T15:42:25.604Z,100682.77
2019-05-02T15:45:12.539Z,100678.08
2019-05-02T15:48:02.525Z,100679.19
2019-05-02T15:50:52.127Z,100674.25
2019-05-02T15:53:49.683Z,100676.44
2019-05-02T15:56:35.688Z,100680.52
2019-05-02T15:59:42.033Z,100683.02
2019-05-02T16:02:26.391Z,100690.58
2019-05-02T16:05:11.884Z,100688.71
2019-05-02T16:08:05.470Z,100681.66
2019-05-02T16:10:46.724Z,100688.87
2019-05-02T16:13:47.146Z,100688.08
2019-05-02T16:16:32.049Z,100686.48
2019-05-02T16:19:27.635Z,100679.39
2019-05-02T16:22:11.632Z,100679.41
2019-05-02T16:24:59.236Z,100677.06
2019-05-02T16:27:47.849Z,100675.64
2019-05-02T16:30:37.089Z,100673.77
2019-05-02T16:33:23.730Z,100673.30
2019-05-02T16:36:12.625Z,100669.48
2019-05-02T16:38:59.483Z,100674.47
2019-05-02T16:41:49.049Z,100672.07
2019-05-02T16:44:36.055Z,100673.84
2019-05-02T16:47:25.063Z,100670.33
2019-05-02T16:50:13.238Z,100669.69
2019-05-02T16:53:02.325Z,100653.59
2019-05-02T16:55:48.495Z,100661.07
2019-05-02T16:58:37.944Z,100670.84
2019-05-02T17:01:27.167Z,100666.75
2019-05-02T17:04:12.912Z,100663.33
2019-05-02T17:07:02.175Z,100656.69
2019-05-02T17:10:14.790Z,100656.40
2019-05-02T17:13:00.191Z,100655.45
2019-05-02T17:15:45.476Z,100648.38
2019-05-02T17:18:33.542Z,100643.06
2019-05-02T17:21:22.201Z,100644.65
2019-05-02T17:24:09.992Z,100637.70
2019-05-02T17:26:57.495Z,100640.61
2019-05-02T17:29:45.115Z,100642.00
2019-05-02T17:32:36.211Z,100632.18
2019-05-02T17:35:22.130Z,100638.91
2019-05-02T17:38:08.573Z,100639.61
2019-05-02T17:40:59.127Z,100646.94
2019-05-02T17:43:44.480Z,100639.66
2019-05-02T17:46:32.678Z,100642.97
2019-05-02T17:49:23.906Z,100655.16
2019-05-02T17:52:36.675Z,100641.95
2019-05-02T17:55:24.671Z,100650.70
2019-05-02T17:58:14.637Z,100652.08
2019-05-02T18:01:02.201Z,100648.72
2019-05-02T18:03:48.594Z,100650.58
2019-05-02T18:06:36.104Z,100652.38
2019-05-02T18:09:26.289Z,100649.45
2019-05-02T18:12:14.944Z,100649.88
2019-05-02T18:15:01.416Z,100654.21
2019-05-02T18:17:47.861Z,100655.69
2019-05-02T18:20:37.091Z,100652.41
2019-05-02T18:23:24.108Z,100642.48
2019-05-02T18:26:11.445Z,100651.86
2019-05-02T18:29:02.972Z,100644.90
2019-05-02T18:31:47.610Z,100657.84
2019-05-02T18:34:34.027Z,100649.55
2019-05-02T18:37:21.967Z,100657.05
2019-05-02T18:40:11.888Z,100659.38
2019-05-02T18:43:01.994Z,100663.12
2019-05-02T18:45:45.709Z,100658.39
2019-05-02T18:48:36.540Z,100665.12
2019-05-02T18:51:21.819Z,100666.50
2019-05-02T18:54:08.547Z,100678.38
2019-05-02T18:56:56.559Z,100694.83
2019-05-02T18:59:44.653Z,100703.27
2019-05-02T19:02:35.433Z,100711.66
2019-05-02T19:05:22.877Z,100719.22
2019-05-02T19:08:12.215Z,100721.21
2019-05-02T19:11:08.529Z,100725.09
2019-05-02T19:13:47.616Z,100727.38
2019-05-02T19:16:35.051Z,100725.55
2019-05-02T19:19:27.434Z,100720.34
2019-05-02T19:22:16.941Z,100720.17
2019-05-02T19:25:01.842Z,100717.53
2019-05-02T19:27:59.837Z,100702.27
2019-05-02T19:30:47.781Z,100702.27
2019-05-02T19:33:37.509Z,100716.48
2019-05-02T19:36:27.477Z,100710.55
2019-05-02T19:39:10.730Z,100710.55
2019-05-02T19:41:58.825Z,100716.66
2019-05-02T19:44:46.697Z,100716.66
2019-05-02T19:47:34.530Z,100720.11
2019-05-02T19:50:43.093Z,100718.91
2019-05-02T19:53:25.724Z,100729.89
2019-05-02T19:56:13.293Z,100729.89
2019-05-02T19:59:02.717Z,100735.53
2019-05-02T20:01:49.189Z,100732.49
2019-05-02T20:04:37.623Z,100740.36
2019-05-02T20:07:25.035Z,100748.30
2019-05-02T20:10:12.613Z,100737.44
2019-05-02T20:13:03.083Z,100742.27
2019-05-02T20:15:57.145Z,100745.52
2019-05-02T20:18:44.007Z,100738.52
2019-05-02T20:21:34.824Z,100747.83
2019-05-02T20:24:22.940Z,100747.73
2019-05-02T20:27:12.247Z,100759.73
2019-05-02T20:29:58.445Z,100760.33
2019-05-02T20:32:46.304Z,100768.34
2019-05-02T20:35:33.594Z,100755.97
2019-05-02T20:38:22.122Z,100761.19
2019-05-02T20:41:10.076Z,100764.12
2019-05-02T20:43:57.782Z,100764.12
2019-05-02T20:46:45.696Z,100779.96
2019-05-02T20:49:33.093Z,100779.55
2019-05-02T20:52:21.832Z,100780.55
2019-05-02T20:55:09.917Z,100780.55
2019-05-02T20:57:58.922Z,100788.94
2019-05-02T21:00:46.534Z,100800.56
2019-05-02T21:03:34.090Z,100788.46
2019-05-02T21:06:44.183Z,100788.83
2019-05-02T21:09:41.881Z,100788.12
2019-05-02T21:12:28.829Z,100790.48
2019-05-02T21:15:18.262Z,100790.48
2019-05-02T21:18:04.518Z,100792.87
2019-05-02T21:20:52.696Z,100788.70
2019-05-02T21:23:46.446Z,100788.70
2019-05-02T21:26:28.108Z,100790.37
2019-05-02T21:29:15.803Z,100790.37
2019-05-02T21:32:03.619Z,100806.06
2019-05-02T21:34:52.036Z,100804.59
2019-05-02T21:37:42.553Z,100819.41
2019-05-02T21:40:29.861Z,100802.11
2019-05-02T21:43:18.174Z,100809.87
2019-05-02T21:46:06.344Z,100808.30
2019-05-02T21:48:53.947Z,100808.30
2019-05-02T21:51:48.699Z,100811.52
2019-05-02T21:54:44.892Z,100811.52
2019-05-02T21:57:32.722Z,100812.66
2019-05-02T22:00:42.036Z,100815.88
2019-05-02T22:03:27.563Z,100820.33
2019-05-02T22:06:15.554Z,100823.97
2019-05-02T22:09:03.194Z,100829.77
2019-05-02T22:11:52.102Z,100706.34
2019-05-02T22:14:39.060Z,100837.25
2019-05-02T22:17:27.408Z,100829.37
2019-05-02T22:20:15.894Z,100823.23
2019-05-02T22:23:03.829Z,100830.89
2019-05-02T22:25:52.644Z,100832.95
2019-05-02T22:28:39.603Z,100836.08
2019-05-02T22:31:27.431Z,100831.55
2019-05-02T22:34:15.475Z,100833.70
2019-05-02T22:37:03.997Z,100837.44
2019-05-02T22:39:57.444Z,100839.65
2019-05-02T22:42:45.371Z,100840.94
2019-05-02T22:45:33.473Z,100842.23
2019-05-02T22:48:22.744Z,100841.22
2019-05-02T22:51:08.769Z,100845.05
2019-05-02T22:53:57.346Z,100845.05
2019-05-02T22:56:45.419Z,100851.55
2019-05-02T22:59:33.362Z,100846.86
2019-05-02T23:02:21.995Z,100849.75
2019-05-02T23:05:09.102Z,100862.02
2019-05-02T23:07:57.331Z,100852.39
2019-05-02T23:10:45.281Z,100857.97
2019-05-02T23:13:33.144Z,100857.48
2019-05-02T23:16:20.860Z,100858.80
2019-05-02T23:19:08.804Z,100861.47
2019-05-02T23:21:56.643Z,100861.89
2019-05-02T23:25:11.659Z,100864.02
2019-05-02T23:28:02.468Z,100860.64
2019-05-02T23:30:51.875Z,100862.51
2019-05-02T23:33:58.709Z,100865.79
2019-05-02T23:36:44.048Z,100863.67
2019-05-02T23:39:32.363Z,100863.67
2019-05-02T23:42:21.724Z,100861.86
2019-05-02T23:45:07.414Z,100867.14
2019-05-02T23:47:55.166Z,100872.56
2019-05-02T23:50:43.297Z,100869.03
2019-05-02T23:53:31.540Z,100864.98
2019-05-02T23:56:19.443Z,100870.44
2019-05-02T23:59:06.882Z,100716.13
